sensor_id;sensor_type;location;lat;lon;timestamp;temperature;humidity
5344;DHT22;2694;48.950;8.970;2022-07-03T00:02:26;18.00;99.90
5344;DHT22;2694;48.950;8.970;2022-07-03T00:04:53;17.90;99.90
5344;DHT22;2694;48.950;8.970;2022-07-03T00:09:48;18.10;99.90
5344;DHT22;2694;48.950;8.970;2022-07-03T00:12:15;18.30;99.90
5344;DHT22;2694;48.950;8.970;2022-07-03T00:17:11;18.10;99.90
5344;DHT22;2694;48.950;8.970;2022-07-03T00:19:37;18.10;99.90
5344;DHT22;2694;48.950;8.970;2022-07-03T00:22:05;18.10;99.90
5344;DHT22;2694;48.950;8.970;2022-07-03T00:24:40;18.30;99.90
5344;DHT22;2694;48.950;8.970;2022-07-03T00:27:08;18.20;99.90
5344;DHT22;2694;48.950;8.970;2022-07-03T00:29:38;18.00;99.90
5344;DHT22;2694;48.950;8.970;2022-07-03T00:34:37;18.10;99.90
5344;DHT22;2694;48.950;8.970;2022-07-03T00:39:36;17.70;99.90
5344;DHT22;2694;48.950;8.970;2022-07-03T00:44:34;17.30;99.90
5344;DHT22;2694;48.950;8.970;2022-07-03T00:47:03;17.30;99.90
5344;DHT22;2694;48.950;8.970;2022-07-03T00:49:33;17.40;99.90
5344;DHT22;2694;48.950;8.970;2022-07-03T00:52:03;17.60;99.90
5344;DHT22;2694;48.950;8.970;2022-07-03T00:54:32;17.80;99.90
5344;DHT22;2694;48.950;8.970;2022-07-03T00:59:27;17.80;99.90
5344;DHT22;2694;48.950;8.970;2022-07-03T01:02:02;17.70;99.90
5344;DHT22;2694;48.950;8.970;2022-07-03T01:04:36;17.50;99.90
5344;DHT22;2694;48.950;8.970;2022-07-03T01:07:07;17.50;99.90
5344;DHT22;2694;48.950;8.970;2022-07-03T01:09:49;17.20;99.90
5344;DHT22;2694;48.950;8.970;2022-07-03T01:12:26;17.00;99.90
5344;DHT22;2694;48.950;8.970;2022-07-03T01:15:04;17.10;99.90
5344;DHT22;2694;48.950;8.970;2022-07-03T01:17:34;17.30;99.90
5344;DHT22;2694;48.950;8.970;2022-07-03T01:20:03;17.40;99.90
5344;DHT22;2694;48.950;8.970;2022-07-03T01:22:34;17.60;99.90
5344;DHT22;2694;48.950;8.970;2022-07-03T01:25:23;17.70;99.90
5344;DHT22;2694;48.950;8.970;2022-07-03T01:28:06;17.80;99.90
5344;DHT22;2694;48.950;8.970;2022-07-03T01:30:35;17.90;99.90
5344;DHT22;2694;48.950;8.970;2022-07-03T01:33:06;18.00;99.90
5344;DHT22;2694;48.950;8.970;2022-07-03T01:35:34;17.90;99.90
5344;DHT22;2694;48.950;8.970;2022-07-03T01:38:04;17.80;99.90
5344;DHT22;2694;48.950;8.970;2022-07-03T01:40:33;17.50;99.90
5344;DHT22;2694;48.950;8.970;2022-07-03T01:43:04;17.40;99.90
5344;DHT22;2694;48.950;8.970;2022-07-03T01:45:33;17.60;99.90
5344;DHT22;2694;48.950;8.970;2022-07-03T01:48:02;17.90;99.90
5344;DHT22;2694;48.950;8.970;2022-07-03T01:50:32;17.90;99.90
5344;DHT22;2694;48.950;8.970;2022-07-03T01:53:01;17.50;99.90
5344;DHT22;2694;48.950;8.970;2022-07-03T01:55:30;17.00;99.90
5344;DHT22;2694;48.950;8.970;2022-07-03T01:57:58;16.90;99.90
5344;DHT22;2694;48.950;8.970;2022-07-03T02:00:27;17.00;99.90
5344;DHT22;2694;48.950;8.970;2022-07-03T02:02:58;16.90;99.90
5344;DHT22;2694;48.950;8.970;2022-07-03T02:05:38;16.90;99.90
5344;DHT22;2694;48.950;8.970;2022-07-03T02:11:09;17.30;99.90
5344;DHT22;2694;48.950;8.970;2022-07-03T02:13:39;17.30;99.90
5344;DHT22;2694;48.950;8.970;2022-07-03T02:16:12;17.30;99.90
5344;DHT22;2694;48.950;8.970;2022-07-03T02:18:41;17.00;99.90
5344;DHT22;2694;48.950;8.970;2022-07-03T02:21:15;16.90;99.90
5344;DHT22;2694;48.950;8.970;2022-07-03T02:23:55;16.90;99.90
5344;DHT22;2694;48.950;8.970;2022-07-03T02:26:32;17.10;99.90
5344;DHT22;2694;48.950;8.970;2022-07-03T02:29:03;17.30;99.90
5344;DHT22;2694;48.950;8.970;2022-07-03T02:31:37;17.50;99.90
5344;DHT22;2694;48.950;8.970;2022-07-03T02:36:35;17.70;99.90
5344;DHT22;2694;48.950;8.970;2022-07-03T02:39:02;17.70;99.90
5344;DHT22;2694;48.950;8.970;2022-07-03T02:41:39;17.50;99.90
5344;DHT22;2694;48.950;8.970;2022-07-03T02:44:16;17.60;99.90
5344;DHT22;2694;48.950;8.970;2022-07-03T02:46:54;17.60;99.90
5344;DHT22;2694;48.950;8.970;2022-07-03T02:49:42;17.30;99.90
5344;DHT22;2694;48.950;8.970;2022-07-03T02:52:14;17.40;99.90
5344;DHT22;2694;48.950;8.970;2022-07-03T02:54:47;17.40;99.90
5344;DHT22;2694;48.950;8.970;2022-07-03T02:57:17;17.50;99.90
5344;DHT22;2694;48.950;8.970;2022-07-03T03:02:36;17.40;99.90
5344;DHT22;2694;48.950;8.970;2022-07-03T03:07:35;17.40;99.90
5344;DHT22;2694;48.950;8.970;2022-07-03T03:10:02;17.40;99.90
5344;DHT22;2694;48.950;8.970;2022-07-03T03:15:01;17.20;99.90
5344;DHT22;2694;48.950;8.970;2022-07-03T03:17:36;17.10;99.90
5344;DHT22;2694;48.950;8.970;2022-07-03T03:22:59;16.90;99.90
5344;DHT22;2694;48.950;8.970;2022-07-03T03:25:26;17.10;99.90
5344;DHT22;2694;48.950;8.970;2022-07-03T03:27:53;17.10;99.90
5344;DHT22;2694;48.950;8.970;2022-07-03T03:30:21;16.90;99.90
5344;DHT22;2694;48.950;8.970;2022-07-03T03:32:49;16.70;99.90
5344;DHT22;2694;48.950;8.970;2022-07-03T03:35:16;16.50;99.90
5344;DHT22;2694;48.950;8.970;2022-07-03T03:37:44;16.50;99.90
5344;DHT22;2694;48.950;8.970;2022-07-03T03:40:15;16.80;99.90
5344;DHT22;2694;48.950;8.970;2022-07-03T03:42:42;17.00;99.90
5344;DHT22;2694;48.950;8.970;2022-07-03T03:45:10;17.30;99.90
5344;DHT22;2694;48.950;8.970;2022-07-03T03:47:37;17.20;99.90
5344;DHT22;2694;48.950;8.970;2022-07-03T03:50:05;17.10;99.90
5344;DHT22;2694;48.950;8.970;2022-07-03T03:57:27;17.00;99.90
5344;DHT22;2694;48.950;8.970;2022-07-03T04:02:21;16.90;99.90
5344;DHT22;2694;48.950;8.970;2022-07-03T04:04:48;17.00;99.90
5344;DHT22;2694;48.950;8.970;2022-07-03T04:07:16;17.00;99.90
5344;DHT22;2694;48.950;8.970;2022-07-03T04:12:11;16.70;99.90
5344;DHT22;2694;48.950;8.970;2022-07-03T04:14:38;16.70;99.90
5344;DHT22;2694;48.950;8.970;2022-07-03T04:17:04;16.40;99.90
5344;DHT22;2694;48.950;8.970;2022-07-03T04:19:32;16.10;99.90
5344;DHT22;2694;48.950;8.970;2022-07-03T04:24:27;16.20;99.90
5344;DHT22;2694;48.950;8.970;2022-07-03T04:26:54;16.40;99.90
5344;DHT22;2694;48.950;8.970;2022-07-03T04:29:21;16.30;99.90
5344;DHT22;2694;48.950;8.970;2022-07-03T04:31:47;16.30;99.90
5344;DHT22;2694;48.950;8.970;2022-07-03T04:34:14;16.60;99.90
5344;DHT22;2694;48.950;8.970;2022-07-03T04:36:41;16.70;99.90
5344;DHT22;2694;48.950;8.970;2022-07-03T04:39:08;16.60;99.90
5344;DHT22;2694;48.950;8.970;2022-07-03T04:41:36;16.40;99.90
5344;DHT22;2694;48.950;8.970;2022-07-03T04:44:03;16.50;99.90
5344;DHT22;2694;48.950;8.970;2022-07-03T04:48:57;17.00;99.90
5344;DHT22;2694;48.950;8.970;2022-07-03T04:51:24;17.00;99.90
5344;DHT22;2694;48.950;8.970;2022-07-03T04:53:50;17.20;99.90
5344;DHT22;2694;48.950;8.970;2022-07-03T04:56:17;17.00;99.90
5344;DHT22;2694;48.950;8.970;2022-07-03T04:58:45;17.10;99.90
5344;DHT22;2694;48.950;8.970;2022-07-03T05:01:12;17.20;99.90
5344;DHT22;2694;48.950;8.970;2022-07-03T05:06:07;17.10;99.90
5344;DHT22;2694;48.950;8.970;2022-07-03T05:08:34;17.20;99.90
5344;DHT22;2694;48.950;8.970;2022-07-03T05:11:00;17.40;99.90
5344;DHT22;2694;48.950;8.970;2022-07-03T05:13:27;17.30;99.90
5344;DHT22;2694;48.950;8.970;2022-07-03T05:15:55;17.40;99.90
5344;DHT22;2694;48.950;8.970;2022-07-03T05:18:22;17.60;99.90
5344;DHT22;2694;48.950;8.970;2022-07-03T05:20:49;17.80;99.90
5344;DHT22;2694;48.950;8.970;2022-07-03T05:23:16;17.80;99.90
5344;DHT22;2694;48.950;8.970;2022-07-03T05:25:42;17.90;99.90
5344;DHT22;2694;48.950;8.970;2022-07-03T05:28:09;18.10;99.90
5344;DHT22;2694;48.950;8.970;2022-07-03T05:30:36;18.20;99.90
5344;DHT22;2694;48.950;8.970;2022-07-03T05:33:04;18.40;99.90
5344;DHT22;2694;48.950;8.970;2022-07-03T05:35:31;18.50;99.90
5344;DHT22;2694;48.950;8.970;2022-07-03T05:37:58;18.50;99.90
5344;DHT22;2694;48.950;8.970;2022-07-03T05:40:25;18.70;99.90
5344;DHT22;2694;48.950;8.970;2022-07-03T05:42:51;18.80;99.90
5344;DHT22;2694;48.950;8.970;2022-07-03T05:47:45;19.20;99.90
5344;DHT22;2694;48.950;8.970;2022-07-03T05:50:14;19.40;99.90
5344;DHT22;2694;48.950;8.970;2022-07-03T05:55:08;19.60;99.90
5344;DHT22;2694;48.950;8.970;2022-07-03T05:57:35;19.70;99.90
5344;DHT22;2694;48.950;8.970;2022-07-03T06:00:03;19.90;99.90
5344;DHT22;2694;48.950;8.970;2022-07-03T06:02:30;20.00;99.90
5344;DHT22;2694;48.950;8.970;2022-07-03T06:04:57;20.10;99.90
5344;DHT22;2694;48.950;8.970;2022-07-03T06:07:25;20.30;99.90
5344;DHT22;2694;48.950;8.970;2022-07-03T06:09:52;20.40;99.90
5344;DHT22;2694;48.950;8.970;2022-07-03T06:12:19;20.50;99.90
5344;DHT22;2694;48.950;8.970;2022-07-03T06:14:45;20.70;99.90
5344;DHT22;2694;48.950;8.970;2022-07-03T06:17:12;20.80;99.90
5344;DHT22;2694;48.950;8.970;2022-07-03T06:19:39;21.10;99.90
5344;DHT22;2694;48.950;8.970;2022-07-03T06:22:06;21.20;99.90
5344;DHT22;2694;48.950;8.970;2022-07-03T06:27:01;21.60;99.90
5344;DHT22;2694;48.950;8.970;2022-07-03T06:31:55;21.80;99.90
5344;DHT22;2694;48.950;8.970;2022-07-03T06:34:22;22.00;99.90
5344;DHT22;2694;48.950;8.970;2022-07-03T06:39:16;22.50;99.90
5344;DHT22;2694;48.950;8.970;2022-07-03T06:41:44;22.80;99.90
5344;DHT22;2694;48.950;8.970;2022-07-03T06:44:11;23.00;99.90
5344;DHT22;2694;48.950;8.970;2022-07-03T06:46:37;23.10;99.90
5344;DHT22;2694;48.950;8.970;2022-07-03T06:49:04;23.40;99.90
5344;DHT22;2694;48.950;8.970;2022-07-03T06:51:31;23.40;99.90
5344;DHT22;2694;48.950;8.970;2022-07-03T06:53:59;23.80;99.90
5344;DHT22;2694;48.950;8.970;2022-07-03T06:58:54;24.00;99.90
5344;DHT22;2694;48.950;8.970;2022-07-03T07:01:21;24.10;99.90
5344;DHT22;2694;48.950;8.970;2022-07-03T07:06:15;24.40;99.90
5344;DHT22;2694;48.950;8.970;2022-07-03T07:08:42;24.90;99.90
5344;DHT22;2694;48.950;8.970;2022-07-03T07:11:08;25.00;99.90
5344;DHT22;2694;48.950;8.970;2022-07-03T07:13:35;25.30;99.90
5344;DHT22;2694;48.950;8.970;2022-07-03T07:16:04;25.60;99.90
5344;DHT22;2694;48.950;8.970;2022-07-03T07:18:31;25.80;99.90
5344;DHT22;2694;48.950;8.970;2022-07-03T07:20:58;26.00;99.80
5344;DHT22;2694;48.950;8.970;2022-07-03T07:23:24;26.10;98.30
5344;DHT22;2694;48.950;8.970;2022-07-03T07:25:51;25.90;98.90
5344;DHT22;2694;48.950;8.970;2022-07-03T07:30:45;26.50;97.90
5344;DHT22;2694;48.950;8.970;2022-07-03T07:33:13;26.60;97.80
5344;DHT22;2694;48.950;8.970;2022-07-03T07:35:40;26.90;98.20
5344;DHT22;2694;48.950;8.970;2022-07-03T07:40:34;27.30;96.40
5344;DHT22;2694;48.950;8.970;2022-07-03T07:43:01;27.60;96.20
5344;DHT22;2694;48.950;8.970;2022-07-03T07:45:27;27.80;94.80
5344;DHT22;2694;48.950;8.970;2022-07-03T07:47:54;27.80;94.40
5344;DHT22;2694;48.950;8.970;2022-07-03T07:50:22;27.70;94.30
5344;DHT22;2694;48.950;8.970;2022-07-03T07:52:49;28.00;94.50
5344;DHT22;2694;48.950;8.970;2022-07-03T07:55:16;28.30;94.10
5344;DHT22;2694;48.950;8.970;2022-07-03T08:00:13;28.50;93.20
5344;DHT22;2694;48.950;8.970;2022-07-03T08:02:41;28.70;93.00
5344;DHT22;2694;48.950;8.970;2022-07-03T08:05:28;29.00;92.50
5344;DHT22;2694;48.950;8.970;2022-07-03T08:08:06;29.40;91.40
5344;DHT22;2694;48.950;8.970;2022-07-03T08:10:37;29.50;91.50
5344;DHT22;2694;48.950;8.970;2022-07-03T08:13:05;29.60;90.30
5344;DHT22;2694;48.950;8.970;2022-07-03T08:15:31;29.70;90.10
5344;DHT22;2694;48.950;8.970;2022-07-03T08:17:58;29.70;88.00
5344;DHT22;2694;48.950;8.970;2022-07-03T08:20:27;29.80;86.20
5344;DHT22;2694;48.950;8.970;2022-07-03T08:22:54;29.90;86.50
5344;DHT22;2694;48.950;8.970;2022-07-03T08:25:21;29.90;87.20
5344;DHT22;2694;48.950;8.970;2022-07-03T08:27:48;30.00;82.80
5344;DHT22;2694;48.950;8.970;2022-07-03T08:30:15;30.10;83.10
5344;DHT22;2694;48.950;8.970;2022-07-03T08:32:43;30.00;84.90
5344;DHT22;2694;48.950;8.970;2022-07-03T08:35:11;30.40;80.20
5344;DHT22;2694;48.950;8.970;2022-07-03T08:37:39;29.90;83.00
5344;DHT22;2694;48.950;8.970;2022-07-03T08:42:37;29.70;81.90
5344;DHT22;2694;48.950;8.970;2022-07-03T08:45:07;29.80;83.00
5344;DHT22;2694;48.950;8.970;2022-07-03T08:47:36;30.20;85.10
5344;DHT22;2694;48.950;8.970;2022-07-03T08:55:03;31.30;79.30
5344;DHT22;2694;48.950;8.970;2022-07-03T08:57:31;31.30;77.90
5344;DHT22;2694;48.950;8.970;2022-07-03T09:00:02;31.30;76.30
5344;DHT22;2694;48.950;8.970;2022-07-03T09:02:30;31.20;74.70
5344;DHT22;2694;48.950;8.970;2022-07-03T09:04:58;31.20;75.30
5344;DHT22;2694;48.950;8.970;2022-07-03T09:07:26;31.10;72.70
5344;DHT22;2694;48.950;8.970;2022-07-03T09:09:54;31.00;72.60
5344;DHT22;2694;48.950;8.970;2022-07-03T09:12:23;30.90;74.10
5344;DHT22;2694;48.950;8.970;2022-07-03T09:17:17;31.30;72.60
5344;DHT22;2694;48.950;8.970;2022-07-03T09:19:46;31.20;75.10
5344;DHT22;2694;48.950;8.970;2022-07-03T09:22:21;31.40;73.20
5344;DHT22;2694;48.950;8.970;2022-07-03T09:24:48;31.10;72.10
5344;DHT22;2694;48.950;8.970;2022-07-03T09:27:17;31.00;73.00
5344;DHT22;2694;48.950;8.970;2022-07-03T09:30:01;31.00;73.20
5344;DHT22;2694;48.950;8.970;2022-07-03T09:32:32;30.90;72.30
5344;DHT22;2694;48.950;8.970;2022-07-03T09:35:12;31.10;71.90
5344;DHT22;2694;48.950;8.970;2022-07-03T09:37:39;31.00;70.10
5344;DHT22;2694;48.950;8.970;2022-07-03T09:40:09;31.30;70.30
5344;DHT22;2694;48.950;8.970;2022-07-03T09:42:36;31.20;69.80
5344;DHT22;2694;48.950;8.970;2022-07-03T09:45:05;31.20;68.10
5344;DHT22;2694;48.950;8.970;2022-07-03T09:47:32;31.30;68.90
5344;DHT22;2694;48.950;8.970;2022-07-03T09:50:01;30.90;69.50
5344;DHT22;2694;48.950;8.970;2022-07-03T09:52:38;31.00;70.00
5344;DHT22;2694;48.950;8.970;2022-07-03T09:55:14;31.00;70.30
5344;DHT22;2694;48.950;8.970;2022-07-03T09:57:43;31.10;69.70
5344;DHT22;2694;48.950;8.970;2022-07-03T10:00:16;31.30;68.20
5344;DHT22;2694;48.950;8.970;2022-07-03T10:02:57;31.50;68.50
5344;DHT22;2694;48.950;8.970;2022-07-03T10:05:26;31.60;68.90
5344;DHT22;2694;48.950;8.970;2022-07-03T10:07:55;31.80;67.90
5344;DHT22;2694;48.950;8.970;2022-07-03T10:10:24;32.00;67.30
5344;DHT22;2694;48.950;8.970;2022-07-03T10:12:51;32.20;68.80
5344;DHT22;2694;48.950;8.970;2022-07-03T10:15:21;32.10;66.90
5344;DHT22;2694;48.950;8.970;2022-07-03T10:20:25;32.40;65.70
5344;DHT22;2694;48.950;8.970;2022-07-03T10:22:52;32.40;66.70
5344;DHT22;2694;48.950;8.970;2022-07-03T10:27:47;32.00;66.90
5344;DHT22;2694;48.950;8.970;2022-07-03T10:30:15;32.20;67.80
5344;DHT22;2694;48.950;8.970;2022-07-03T10:32:46;32.50;67.90
5344;DHT22;2694;48.950;8.970;2022-07-03T10:35:15;32.60;65.90
5344;DHT22;2694;48.950;8.970;2022-07-03T10:37:54;32.80;66.10
5344;DHT22;2694;48.950;8.970;2022-07-03T10:40:29;33.00;65.30
5344;DHT22;2694;48.950;8.970;2022-07-03T10:43:27;32.90;64.80
5344;DHT22;2694;48.950;8.970;2022-07-03T10:46:13;32.50;66.70
5344;DHT22;2694;48.950;8.970;2022-07-03T10:48:57;32.60;65.50
5344;DHT22;2694;48.950;8.970;2022-07-03T10:51:25;32.50;64.80
5344;DHT22;2694;48.950;8.970;2022-07-03T10:54:13;32.50;65.70
5344;DHT22;2694;48.950;8.970;2022-07-03T11:00:14;32.50;65.70
5344;DHT22;2694;48.950;8.970;2022-07-03T11:02:42;32.50;65.20
5344;DHT22;2694;48.950;8.970;2022-07-03T11:08:08;32.40;66.00
5344;DHT22;2694;48.950;8.970;2022-07-03T11:10:38;31.80;65.80
5344;DHT22;2694;48.950;8.970;2022-07-03T11:18:19;32.00;67.20
5344;DHT22;2694;48.950;8.970;2022-07-03T11:21:16;32.50;67.20
5344;DHT22;2694;48.950;8.970;2022-07-03T11:24:07;32.40;66.10
5344;DHT22;2694;48.950;8.970;2022-07-03T11:26:35;32.00;65.90
5344;DHT22;2694;48.950;8.970;2022-07-03T11:33:58;32.70;64.60
5344;DHT22;2694;48.950;8.970;2022-07-03T11:36:26;32.60;65.70
5344;DHT22;2694;48.950;8.970;2022-07-03T11:39:09;32.80;65.70
5344;DHT22;2694;48.950;8.970;2022-07-03T11:41:45;33.00;64.70
5344;DHT22;2694;48.950;8.970;2022-07-03T11:46:52;32.30;65.70
5344;DHT22;2694;48.950;8.970;2022-07-03T11:49:21;31.70;65.70
5344;DHT22;2694;48.950;8.970;2022-07-03T11:51:56;32.10;67.30
5344;DHT22;2694;48.950;8.970;2022-07-03T11:54:24;32.30;67.10
5344;DHT22;2694;48.950;8.970;2022-07-03T11:56:51;32.50;65.90
5344;DHT22;2694;48.950;8.970;2022-07-03T12:04:14;32.50;66.20
5344;DHT22;2694;48.950;8.970;2022-07-03T12:09:14;32.70;66.00
5344;DHT22;2694;48.950;8.970;2022-07-03T12:14:37;32.80;63.80
5344;DHT22;2694;48.950;8.970;2022-07-03T12:29:24;32.70;64.00
5344;DHT22;2694;48.950;8.970;2022-07-03T12:31:54;33.00;63.30
5344;DHT22;2694;48.950;8.970;2022-07-03T12:36:55;32.60;65.00
5344;DHT22;2694;48.950;8.970;2022-07-03T12:39:23;32.20;65.60
5344;DHT22;2694;48.950;8.970;2022-07-03T12:44:19;32.50;66.20
5344;DHT22;2694;48.950;8.970;2022-07-03T12:46:46;32.90;63.90
5344;DHT22;2694;48.950;8.970;2022-07-03T12:49:15;32.90;62.30
5344;DHT22;2694;48.950;8.970;2022-07-03T12:51:44;32.80;61.60
5344;DHT22;2694;48.950;8.970;2022-07-03T12:54:12;32.60;63.70
5344;DHT22;2694;48.950;8.970;2022-07-03T12:56:41;32.60;62.20
5344;DHT22;2694;48.950;8.970;2022-07-03T13:06:59;33.10;61.60
5344;DHT22;2694;48.950;8.970;2022-07-03T13:09:27;33.00;59.80
5344;DHT22;2694;48.950;8.970;2022-07-03T13:11:53;33.20;61.30
5344;DHT22;2694;48.950;8.970;2022-07-03T13:14:20;33.30;60.60
5344;DHT22;2694;48.950;8.970;2022-07-03T13:16:49;33.00;61.60
5344;DHT22;2694;48.950;8.970;2022-07-03T13:19:18;33.10;63.80
5344;DHT22;2694;48.950;8.970;2022-07-03T13:21:46;33.00;60.30
5344;DHT22;2694;48.950;8.970;2022-07-03T13:24:14;32.70;60.10
5344;DHT22;2694;48.950;8.970;2022-07-03T13:26:41;32.90;61.30
5344;DHT22;2694;48.950;8.970;2022-07-03T13:29:08;33.10;60.40
5344;DHT22;2694;48.950;8.970;2022-07-03T13:31:35;33.00;60.00
5344;DHT22;2694;48.950;8.970;2022-07-03T13:34:02;32.90;60.40
5344;DHT22;2694;48.950;8.970;2022-07-03T13:36:31;33.00;61.90
5344;DHT22;2694;48.950;8.970;2022-07-03T13:41:27;32.70;58.60
5344;DHT22;2694;48.950;8.970;2022-07-03T13:46:22;32.10;59.30
5344;DHT22;2694;48.950;8.970;2022-07-03T13:48:49;31.80;60.30
5344;DHT22;2694;48.950;8.970;2022-07-03T13:51:16;32.10;61.80
5344;DHT22;2694;48.950;8.970;2022-07-03T13:53:45;32.30;61.00
5344;DHT22;2694;48.950;8.970;2022-07-03T13:56:14;32.50;61.30
5344;DHT22;2694;48.950;8.970;2022-07-03T13:58:40;32.60;59.60
5344;DHT22;2694;48.950;8.970;2022-07-03T14:01:07;32.60;59.80
5344;DHT22;2694;48.950;8.970;2022-07-03T14:03:34;32.50;61.70
5344;DHT22;2694;48.950;8.970;2022-07-03T14:06:01;32.50;61.00
5344;DHT22;2694;48.950;8.970;2022-07-03T14:08:28;32.50;59.50
5344;DHT22;2694;48.950;8.970;2022-07-03T14:10:56;32.50;59.50
5344;DHT22;2694;48.950;8.970;2022-07-03T14:15:50;32.40;60.20
5344;DHT22;2694;48.950;8.970;2022-07-03T14:18:17;32.60;60.20
5344;DHT22;2694;48.950;8.970;2022-07-03T14:23:11;32.50;61.00
5344;DHT22;2694;48.950;8.970;2022-07-03T14:25:38;32.50;59.90
5344;DHT22;2694;48.950;8.970;2022-07-03T14:28:06;32.50;61.10
5344;DHT22;2694;48.950;8.970;2022-07-03T14:30:50;32.60;59.70
5344;DHT22;2694;48.950;8.970;2022-07-03T14:33:35;32.60;59.60
5344;DHT22;2694;48.950;8.970;2022-07-03T14:36:02;32.50;60.00
5344;DHT22;2694;48.950;8.970;2022-07-03T14:40:56;32.50;61.10
5344;DHT22;2694;48.950;8.970;2022-07-03T14:48:18;32.30;59.50
5344;DHT22;2694;48.950;8.970;2022-07-03T14:50:46;32.40;62.80
5344;DHT22;2694;48.950;8.970;2022-07-03T14:53:13;32.50;62.50
5344;DHT22;2694;48.950;8.970;2022-07-03T14:55:41;32.30;60.00
5344;DHT22;2694;48.950;8.970;2022-07-03T14:58:14;32.10;59.50
5344;DHT22;2694;48.950;8.970;2022-07-03T15:00:47;32.00;60.10
5344;DHT22;2694;48.950;8.970;2022-07-03T15:03:17;32.00;61.50
5344;DHT22;2694;48.950;8.970;2022-07-03T15:05:46;32.00;61.00
5344;DHT22;2694;48.950;8.970;2022-07-03T15:08:40;32.10;62.70
5344;DHT22;2694;48.950;8.970;2022-07-03T15:11:13;32.00;61.10
5344;DHT22;2694;48.950;8.970;2022-07-03T15:14:03;32.00;60.90
5344;DHT22;2694;48.950;8.970;2022-07-03T15:16:33;32.00;61.20
5344;DHT22;2694;48.950;8.970;2022-07-03T15:19:01;31.80;60.80
5344;DHT22;2694;48.950;8.970;2022-07-03T15:23:59;31.60;61.40
5344;DHT22;2694;48.950;8.970;2022-07-03T15:26:28;31.50;61.50
5344;DHT22;2694;48.950;8.970;2022-07-03T15:28:58;31.60;62.80
5344;DHT22;2694;48.950;8.970;2022-07-03T15:31:26;31.60;61.50
5344;DHT22;2694;48.950;8.970;2022-07-03T15:33:54;31.60;63.20
5344;DHT22;2694;48.950;8.970;2022-07-03T15:41:28;31.10;63.90
5344;DHT22;2694;48.950;8.970;2022-07-03T15:46:39;31.20;65.40
5344;DHT22;2694;48.950;8.970;2022-07-03T15:49:23;31.40;63.90
5344;DHT22;2694;48.950;8.970;2022-07-03T15:54:28;31.70;64.60
5344;DHT22;2694;48.950;8.970;2022-07-03T15:59:27;31.90;65.20
5344;DHT22;2694;48.950;8.970;2022-07-03T16:07:22;31.30;61.70
5344;DHT22;2694;48.950;8.970;2022-07-03T16:09:50;30.90;64.30
5344;DHT22;2694;48.950;8.970;2022-07-03T16:12:18;30.50;63.90
5344;DHT22;2694;48.950;8.970;2022-07-03T16:14:47;30.50;64.10
5344;DHT22;2694;48.950;8.970;2022-07-03T16:17:16;30.40;65.90
5344;DHT22;2694;48.950;8.970;2022-07-03T16:19:44;30.50;65.70
5344;DHT22;2694;48.950;8.970;2022-07-03T16:22:13;30.40;65.70
5344;DHT22;2694;48.950;8.970;2022-07-03T16:29:38;30.20;64.80
5344;DHT22;2694;48.950;8.970;2022-07-03T16:32:07;30.10;65.70
5344;DHT22;2694;48.950;8.970;2022-07-03T16:37:08;29.80;65.80
5344;DHT22;2694;48.950;8.970;2022-07-03T16:39:37;29.80;66.40
5344;DHT22;2694;48.950;8.970;2022-07-03T16:42:05;29.80;67.00
5344;DHT22;2694;48.950;8.970;2022-07-03T16:44:36;29.60;66.20
5344;DHT22;2694;48.950;8.970;2022-07-03T16:47:04;29.70;67.50
5344;DHT22;2694;48.950;8.970;2022-07-03T16:49:34;29.60;67.50
5344;DHT22;2694;48.950;8.970;2022-07-03T16:52:08;29.60;68.00
5344;DHT22;2694;48.950;8.970;2022-07-03T16:54:37;29.60;65.70
5344;DHT22;2694;48.950;8.970;2022-07-03T16:57:07;29.60;66.70
5344;DHT22;2694;48.950;8.970;2022-07-03T16:59:35;29.60;67.20
5344;DHT22;2694;48.950;8.970;2022-07-03T17:02:04;29.40;67.20
5344;DHT22;2694;48.950;8.970;2022-07-03T17:04:33;29.40;69.30
5344;DHT22;2694;48.950;8.970;2022-07-03T17:07:00;29.20;67.70
5344;DHT22;2694;48.950;8.970;2022-07-03T17:09:27;29.10;67.80
5344;DHT22;2694;48.950;8.970;2022-07-03T17:11:55;28.90;69.80
5344;DHT22;2694;48.950;8.970;2022-07-03T17:14:22;28.80;69.60
5344;DHT22;2694;48.950;8.970;2022-07-03T17:16:51;28.70;70.40
5344;DHT22;2694;48.950;8.970;2022-07-03T17:19:22;28.60;71.00
5344;DHT22;2694;48.950;8.970;2022-07-03T17:21:50;28.60;72.40
5344;DHT22;2694;48.950;8.970;2022-07-03T17:29:17;28.50;71.60
5344;DHT22;2694;48.950;8.970;2022-07-03T17:31:45;28.40;71.90
5344;DHT22;2694;48.950;8.970;2022-07-03T17:36:42;28.30;73.20
5344;DHT22;2694;48.950;8.970;2022-07-03T17:39:10;28.30;73.50
5344;DHT22;2694;48.950;8.970;2022-07-03T17:46:38;28.30;74.00
5344;DHT22;2694;48.950;8.970;2022-07-03T17:49:05;28.30;73.20
5344;DHT22;2694;48.950;8.970;2022-07-03T17:51:36;28.30;72.10
5344;DHT22;2694;48.950;8.970;2022-07-03T17:56:31;28.20;73.20
5344;DHT22;2694;48.950;8.970;2022-07-03T17:58:58;28.20;74.00
5344;DHT22;2694;48.950;8.970;2022-07-03T18:01:26;28.00;72.50
5344;DHT22;2694;48.950;8.970;2022-07-03T18:03:57;27.90;74.70
5344;DHT22;2694;48.950;8.970;2022-07-03T18:06:28;27.90;72.70
5344;DHT22;2694;48.950;8.970;2022-07-03T18:08:56;27.80;73.30
5344;DHT22;2694;48.950;8.970;2022-07-03T18:11:33;27.70;75.10
5344;DHT22;2694;48.950;8.970;2022-07-03T18:16:34;27.50;75.30
5344;DHT22;2694;48.950;8.970;2022-07-03T18:19:03;27.40;76.00
5344;DHT22;2694;48.950;8.970;2022-07-03T18:21:31;27.40;75.30
5344;DHT22;2694;48.950;8.970;2022-07-03T18:24:01;27.30;76.40
5344;DHT22;2694;48.950;8.970;2022-07-03T18:26:30;27.30;78.30
5344;DHT22;2694;48.950;8.970;2022-07-03T18:29:01;27.30;79.70
5344;DHT22;2694;48.950;8.970;2022-07-03T18:33:55;27.10;80.30
5344;DHT22;2694;48.950;8.970;2022-07-03T18:36:23;27.00;81.50
5344;DHT22;2694;48.950;8.970;2022-07-03T18:41:18;26.80;80.80
5344;DHT22;2694;48.950;8.970;2022-07-03T18:43:45;26.70;83.20
5344;DHT22;2694;48.950;8.970;2022-07-03T18:46:12;26.70;83.80
5344;DHT22;2694;48.950;8.970;2022-07-03T18:48:39;26.70;83.70
5344;DHT22;2694;48.950;8.970;2022-07-03T18:51:10;26.70;84.60
5344;DHT22;2694;48.950;8.970;2022-07-03T18:53:44;26.70;84.20
5344;DHT22;2694;48.950;8.970;2022-07-03T19:01:21;26.70;84.80
5344;DHT22;2694;48.950;8.970;2022-07-03T19:06:22;26.40;84.50
5344;DHT22;2694;48.950;8.970;2022-07-03T19:14:02;26.00;86.00
5344;DHT22;2694;48.950;8.970;2022-07-03T19:16:34;25.80;86.00
5344;DHT22;2694;48.950;8.970;2022-07-03T19:19:04;25.70;86.80
5344;DHT22;2694;48.950;8.970;2022-07-03T19:21:31;25.60;88.30
5344;DHT22;2694;48.950;8.970;2022-07-03T19:23:59;25.50;89.90
5344;DHT22;2694;48.950;8.970;2022-07-03T19:26:26;25.50;90.10
5344;DHT22;2694;48.950;8.970;2022-07-03T19:28:53;25.40;90.20
5344;DHT22;2694;48.950;8.970;2022-07-03T19:31:21;25.30;90.20
5344;DHT22;2694;48.950;8.970;2022-07-03T19:33:48;25.10;90.80
5344;DHT22;2694;48.950;8.970;2022-07-03T19:36:15;25.00;90.80
5344;DHT22;2694;48.950;8.970;2022-07-03T19:41:10;24.70;91.20
5344;DHT22;2694;48.950;8.970;2022-07-03T19:46:05;24.70;92.20
5344;DHT22;2694;48.950;8.970;2022-07-03T19:48:31;24.60;92.80
5344;DHT22;2694;48.950;8.970;2022-07-03T19:50:59;24.50;93.70
5344;DHT22;2694;48.950;8.970;2022-07-03T19:53:26;24.30;94.50
5344;DHT22;2694;48.950;8.970;2022-07-03T19:55:53;24.20;95.20
5344;DHT22;2694;48.950;8.970;2022-07-03T19:58:21;24.20;95.70
5344;DHT22;2694;48.950;8.970;2022-07-03T20:00:48;24.20;97.30
5344;DHT22;2694;48.950;8.970;2022-07-03T20:03:15;24.20;97.40
5344;DHT22;2694;48.950;8.970;2022-07-03T20:05:43;24.20;97.80